sensor_id;sensor_type;location;lat;lon;timestamp;pressure;altitude;pressure_sealevel;temperature;humidity
35023;BME280;21214;44.912;8.204;2023-03-01T00:01:20;100120.34;;;2.17;100.00
35023;BME280;21214;44.912;8.204;2023-03-01T00:03:46;100111.31;;;2.24;100.00
35023;BME280;21214;44.912;8.204;2023-03-01T00:06:11;100106.38;;;2.35;100.00
35023;BME280;21214;44.912;8.204;2023-03-01T00:08:37;100110.59;;;2.20;100.00
35023;BME280;21214;44.912;8.204;2023-03-01T00:13:37;100097.03;;;2.14;100.00
35023;BME280;21214;44.912;8.204;2023-03-01T00:16:03;100092.91;;;2.10;100.00
35023;BME280;21214;44.912;8.204;2023-03-01T00:18:28;100091.53;;;2.20;100.00
35023;BME280;21214;44.912;8.204;2023-03-01T00:20:54;100100.09;;;2.22;100.00
35023;BME280;21214;44.912;8.204;2023-03-01T00:23:20;100107.44;;;2.31;100.00
35023;BME280;21214;44.912;8.204;2023-03-01T00:25:45;100101.19;;;2.35;100.00
35023;BME280;21214;44.912;8.204;2023-03-01T00:28:11;100097.94;;;2.30;100.00
35023;BME280;21214;44.912;8.204;2023-03-01T00:30:36;100094.66;;;2.26;100.00
35023;BME280;21214;44.912;8.204;2023-03-01T00:33:01;100090.75;;;2.35;100.00
35023;BME280;21214;44.912;8.204;2023-03-01T00:35:27;100078.50;;;2.20;100.00
35023;BME280;21214;44.912;8.204;2023-03-01T00:37:52;100075.22;;;2.16;100.00
35023;BME280;21214;44.912;8.204;2023-03-01T00:40:26;100078.06;;;2.12;100.00
35023;BME280;21214;44.912;8.204;2023-03-01T00:42:51;100077.75;;;2.18;100.00
35023;BME280;21214;44.912;8.204;2023-03-01T00:45:17;100074.22;;;2.19;100.00
35023;BME280;21214;44.912;8.204;2023-03-01T00:47:42;100075.59;;;2.26;100.00
35023;BME280;21214;44.912;8.204;2023-03-01T00:50:08;100077.81;;;2.33;100.00
35023;BME280;21214;44.912;8.204;2023-03-01T00:52:33;100072.44;;;2.36;100.00
35023;BME280;21214;44.912;8.204;2023-03-01T00:54:59;100067.53;;;2.30;100.00
35023;BME280;21214;44.912;8.204;2023-03-01T00:57:24;100068.78;;;2.40;100.00
35023;BME280;21214;44.912;8.204;2023-03-01T00:59:49;100074.66;;;2.44;100.00
35023;BME280;21214;44.912;8.204;2023-03-01T01:02:17;100081.47;;;2.46;100.00
35023;BME280;21214;44.912;8.204;2023-03-01T01:04:43;100072.81;;;2.46;100.00
35023;BME280;21214;44.912;8.204;2023-03-01T01:07:08;100069.13;;;2.50;100.00
35023;BME280;21214;44.912;8.204;2023-03-01T01:09:34;100064.22;;;2.44;100.00
35023;BME280;21214;44.912;8.204;2023-03-01T01:11:59;100064.09;;;2.47;100.00
35023;BME280;21214;44.912;8.204;2023-03-01T01:14:24;100057.53;;;2.56;100.00
35023;BME280;21214;44.912;8.204;2023-03-01T01:16:50;100058.56;;;2.53;100.00
35023;BME280;21214;44.912;8.204;2023-03-01T01:19:16;100051.50;;;2.55;100.00
35023;BME280;21214;44.912;8.204;2023-03-01T01:21:41;100046.97;;;2.59;100.00
35023;BME280;21214;44.912;8.204;2023-03-01T01:24:10;100045.13;;;2.61;100.00
35023;BME280;21214;44.912;8.204;2023-03-01T01:26:35;100046.13;;;2.58;100.00
35023;BME280;21214;44.912;8.204;2023-03-01T01:29:02;100041.91;;;2.56;100.00
35023;BME280;21214;44.912;8.204;2023-03-01T01:31:27;100044.59;;;2.54;100.00
35023;BME280;21214;44.912;8.204;2023-03-01T01:33:55;100040.34;;;2.53;100.00
35023;BME280;21214;44.912;8.204;2023-03-01T01:36:20;100048.28;;;2.50;100.00
35023;BME280;21214;44.912;8.204;2023-03-01T01:38:46;100048.16;;;2.53;100.00
35023;BME280;21214;44.912;8.204;2023-03-01T01:41:12;100044.00;;;2.49;100.00
35023;BME280;21214;44.912;8.204;2023-03-01T01:43:40;100044.00;;;2.49;100.00
35023;BME280;21214;44.912;8.204;2023-03-01T01:48:44;100035.59;;;2.60;100.00
35023;BME280;21214;44.912;8.204;2023-03-01T01:51:12;100030.50;;;2.58;100.00
35023;BME280;21214;44.912;8.204;2023-03-01T01:53:38;100026.53;;;2.51;100.00
35023;BME280;21214;44.912;8.204;2023-03-01T01:56:05;100025.03;;;2.47;100.00
35023;BME280;21214;44.912;8.204;2023-03-01T01:58:32;100024.59;;;2.55;100.00
35023;BME280;21214;44.912;8.204;2023-03-01T02:00:58;100029.41;;;2.62;100.00
35023;BME280;21214;44.912;8.204;2023-03-01T02:03:27;100020.81;;;2.60;100.00
35023;BME280;21214;44.912;8.204;2023-03-01T02:08:23;100022.09;;;2.53;100.00
35023;BME280;21214;44.912;8.204;2023-03-01T02:10:50;100019.91;;;2.61;100.00
35023;BME280;21214;44.912;8.204;2023-03-01T02:13:17;100020.22;;;2.55;100.00
35023;BME280;21214;44.912;8.204;2023-03-01T02:15:42;100016.97;;;2.67;100.00
35023;BME280;21214;44.912;8.204;2023-03-01T02:18:09;100016.38;;;2.62;100.00
35023;BME280;21214;44.912;8.204;2023-03-01T02:23:00;100010.56;;;2.57;100.00
35023;BME280;21214;44.912;8.204;2023-03-01T02:28:19;100009.25;;;2.33;100.00
35023;BME280;21214;44.912;8.204;2023-03-01T02:30:45;100009.25;;;2.33;100.00
35023;BME280;21214;44.912;8.204;2023-03-01T02:33:31;100005.41;;;2.40;100.00
35023;BME280;21214;44.912;8.204;2023-03-01T02:35:58;99998.88;;;2.48;100.00
35023;BME280;21214;44.912;8.204;2023-03-01T02:38:24;100002.25;;;2.51;100.00
35023;BME280;21214;44.912;8.204;2023-03-01T02:40:50;99995.88;;;2.56;100.00
35023;BME280;21214;44.912;8.204;2023-03-01T02:43:16;99996.53;;;2.60;100.00
35023;BME280;21214;44.912;8.204;2023-03-01T02:45:47;99992.84;;;2.64;100.00
35023;BME280;21214;44.912;8.204;2023-03-01T02:48:13;99993.69;;;2.64;100.00
35023;BME280;21214;44.912;8.204;2023-03-01T02:53:27;99988.56;;;2.63;100.00
35023;BME280;21214;44.912;8.204;2023-03-01T02:55:57;99985.28;;;2.59;100.00
35023;BME280;21214;44.912;8.204;2023-03-01T02:58:22;99979.72;;;2.65;100.00
35023;BME280;21214;44.912;8.204;2023-03-01T03:00:48;99975.22;;;2.69;100.00
35023;BME280;21214;44.912;8.204;2023-03-01T03:03:15;99970.00;;;2.69;100.00
35023;BME280;21214;44.912;8.204;2023-03-01T03:05:41;99968.38;;;2.66;100.00
35023;BME280;21214;44.912;8.204;2023-03-01T03:08:06;99971.00;;;2.66;100.00
35023;BME280;21214;44.912;8.204;2023-03-01T03:10:36;99972.69;;;2.67;100.00
35023;BME280;21214;44.912;8.204;2023-03-01T03:13:04;99962.84;;;2.72;100.00
35023;BME280;21214;44.912;8.204;2023-03-01T03:15:30;99957.88;;;2.68;100.00
35023;BME280;21214;44.912;8.204;2023-03-01T03:17:56;99952.34;;;2.58;100.00
35023;BME280;21214;44.912;8.204;2023-03-01T03:20:24;99959.41;;;2.56;100.00
35023;BME280;21214;44.912;8.204;2023-03-01T03:22:50;99958.28;;;2.60;100.00
35023;BME280;21214;44.912;8.204;2023-03-01T03:25:16;99959.06;;;2.62;100.00
35023;BME280;21214;44.912;8.204;2023-03-01T03:27:42;99955.53;;;2.63;100.00
35023;BME280;21214;44.912;8.204;2023-03-01T03:30:10;99957.22;;;2.64;100.00
35023;BME280;21214;44.912;8.204;2023-03-01T03:32:40;99958.88;;;2.65;100.00
35023;BME280;21214;44.912;8.204;2023-03-01T03:35:07;99961.25;;;2.70;100.00
35023;BME280;21214;44.912;8.204;2023-03-01T03:37:39;99959.56;;;2.69;100.00
35023;BME280;21214;44.912;8.204;2023-03-01T03:40:25;99955.88;;;2.73;100.00
35023;BME280;21214;44.912;8.204;2023-03-01T03:42:50;99958.22;;;2.77;100.00
35023;BME280;21214;44.912;8.204;2023-03-01T03:45:16;99955.59;;;2.77;100.00
35023;BME280;21214;44.912;8.204;2023-03-01T03:47:41;99956.97;;;2.69;100.00
35023;BME280;21214;44.912;8.204;2023-03-01T03:50:07;99950.31;;;2.63;100.00
35023;BME280;21214;44.912;8.204;2023-03-01T03:52:33;99950.41;;;2.62;100.00
35023;BME280;21214;44.912;8.204;2023-03-01T03:54:58;99948.47;;;2.65;100.00
35023;BME280;21214;44.912;8.204;2023-03-01T03:57:23;99953.66;;;2.65;100.00
35023;BME280;21214;44.912;8.204;2023-03-01T03:59:49;99949.91;;;2.71;100.00
35023;BME280;21214;44.912;8.204;2023-03-01T04:02:14;99953.19;;;2.74;100.00
35023;BME280;21214;44.912;8.204;2023-03-01T04:04:47;99945.19;;;2.77;100.00
35023;BME280;21214;44.912;8.204;2023-03-01T04:07:15;99951.50;;;2.73;100.00
35023;BME280;21214;44.912;8.204;2023-03-01T04:09:41;99946.47;;;2.70;100.00
35023;BME280;21214;44.912;8.204;2023-03-01T04:12:07;99939.91;;;2.63;100.00
35023;BME280;21214;44.912;8.204;2023-03-01T04:14:33;99936.38;;;2.64;100.00
35023;BME280;21214;44.912;8.204;2023-03-01T04:16:58;99934.69;;;2.63;100.00
35023;BME280;21214;44.912;8.204;2023-03-01T04:19:23;99929.47;;;2.63;100.00
35023;BME280;21214;44.912;8.204;2023-03-01T04:21:49;99924.44;;;2.60;100.00
35023;BME280;21214;44.912;8.204;2023-03-01T04:24:14;99922.06;;;2.56;100.00
35023;BME280;21214;44.912;8.204;2023-03-01T04:26:39;99918.22;;;2.47;100.00
35023;BME280;21214;44.912;8.204;2023-03-01T04:29:05;99921.75;;;2.46;100.00
35023;BME280;21214;44.912;8.204;2023-03-01T04:31:30;99922.22;;;2.37;100.00
35023;BME280;21214;44.912;8.204;2023-03-01T04:33:55;99912.13;;;2.31;100.00
35023;BME280;21214;44.912;8.204;2023-03-01T04:36:22;99910.81;;;2.24;100.00
35023;BME280;21214;44.912;8.204;2023-03-01T04:38:48;99919.34;;;2.26;100.00
35023;BME280;21214;44.912;8.204;2023-03-01T04:41:14;99919.34;;;2.26;100.00
35023;BME280;21214;44.912;8.204;2023-03-01T04:43:40;99924.94;;;2.35;100.00
35023;BME280;21214;44.912;8.204;2023-03-01T04:46:07;99920.22;;;2.42;100.00
35023;BME280;21214;44.912;8.204;2023-03-01T04:48:37;99913.16;;;2.44;100.00
35023;BME280;21214;44.912;8.204;2023-03-01T04:51:03;99922.41;;;2.50;100.00
35023;BME280;21214;44.912;8.204;2023-03-01T04:53:29;99920.22;;;2.42;100.00
35023;BME280;21214;44.912;8.204;2023-03-01T04:55:55;99920.97;;;2.44;100.00
35023;BME280;21214;44.912;8.204;2023-03-01T04:58:22;99923.50;;;2.45;100.00
35023;BME280;21214;44.912;8.204;2023-03-01T05:00:47;99923.44;;;2.47;100.00
35023;BME280;21214;44.912;8.204;2023-03-01T05:03:12;99921.41;;;2.52;100.00
35023;BME280;21214;44.912;8.204;2023-03-01T05:05:43;99917.63;;;2.58;100.00
35023;BME280;21214;44.912;8.204;2023-03-01T05:08:09;99920.81;;;2.63;100.00
35023;BME280;21214;44.912;8.204;2023-03-01T05:10:43;99923.34;;;2.64;100.00
35023;BME280;21214;44.912;8.204;2023-03-01T05:13:11;99919.81;;;2.65;100.00
35023;BME280;21214;44.912;8.204;2023-03-01T05:15:38;99923.34;;;2.64;100.00
35023;BME280;21214;44.912;8.204;2023-03-01T05:18:04;99915.88;;;2.58;100.00
35023;BME280;21214;44.912;8.204;2023-03-01T05:20:36;99919.13;;;2.62;100.00
35023;BME280;21214;44.912;8.204;2023-03-01T05:23:02;99921.09;;;2.58;100.00
35023;BME280;21214;44.912;8.204;2023-03-01T05:25:30;99923.50;;;2.61;100.00
35023;BME280;21214;44.912;8.204;2023-03-01T05:28:02;99922.59;;;2.62;100.00
35023;BME280;21214;44.912;8.204;2023-03-01T05:30:30;99916.53;;;2.62;100.00
35023;BME280;21214;44.912;8.204;2023-03-01T05:32:55;99914.34;;;2.54;100.00
35023;BME280;21214;44.912;8.204;2023-03-01T05:35:21;99907.47;;;2.53;100.00
35023;BME280;21214;44.912;8.204;2023-03-01T05:37:47;99913.25;;;2.42;100.00
35023;BME280;21214;44.912;8.204;2023-03-01T05:40:15;99905.25;;;2.30;100.00
35023;BME280;21214;44.912;8.204;2023-03-01T05:42:42;99908.34;;;2.21;100.00
35023;BME280;21214;44.912;8.204;2023-03-01T05:45:08;99900.72;;;2.18;100.00
35023;BME280;21214;44.912;8.204;2023-03-01T05:47:34;99898.00;;;2.19;100.00
35023;BME280;21214;44.912;8.204;2023-03-01T05:50:00;99905.59;;;2.24;100.00
35023;BME280;21214;44.912;8.204;2023-03-01T05:52:26;99903.81;;;2.24;100.00
35023;BME280;21214;44.912;8.204;2023-03-01T05:54:51;99900.53;;;2.21;100.00
35023;BME280;21214;44.912;8.204;2023-03-01T05:57:16;99900.38;;;2.24;100.00
35023;BME280;21214;44.912;8.204;2023-03-01T05:59:42;99903.41;;;2.16;100.00
35023;BME280;21214;44.912;8.204;2023-03-01T06:02:07;99904.63;;;2.09;100.00
35023;BME280;21214;44.912;8.204;2023-03-01T06:04:32;99908.75;;;2.13;100.00
35023;BME280;21214;44.912;8.204;2023-03-01T06:06:58;99908.41;;;2.19;100.00
35023;BME280;21214;44.912;8.204;2023-03-01T06:09:23;99912.63;;;2.22;100.00
35023;BME280;21214;44.912;8.204;2023-03-01T06:11:48;99913.56;;;2.21;100.00
35023;BME280;21214;44.912;8.204;2023-03-01T06:14:14;99912.78;;;2.19;100.00
35023;BME280;21214;44.912;8.204;2023-03-01T06:16:40;99920.28;;;2.25;100.00
35023;BME280;21214;44.912;8.204;2023-03-01T06:19:05;99918.03;;;2.34;100.00
35023;BME280;21214;44.912;8.204;2023-03-01T06:21:30;99921.38;;;2.36;100.00
35023;BME280;21214;44.912;8.204;2023-03-01T06:23:56;99915.06;;;2.25;100.00
35023;BME280;21214;44.912;8.204;2023-03-01T06:26:21;99911.28;;;2.15;100.00
35023;BME280;21214;44.912;8.204;2023-03-01T06:28:46;99916.66;;;2.12;100.00
35023;BME280;21214;44.912;8.204;2023-03-01T06:31:11;99921.50;;;2.02;100.00
35023;BME280;21214;44.912;8.204;2023-03-01T06:33:37;99923.94;;;2.05;100.00
35023;BME280;21214;44.912;8.204;2023-03-01T06:36:02;99917.56;;;2.11;100.00
35023;BME280;21214;44.912;8.204;2023-03-01T06:38:28;99918.25;;;2.14;100.00
35023;BME280;21214;44.912;8.204;2023-03-01T06:40:54;99919.00;;;2.16;100.00
35023;BME280;21214;44.912;8.204;2023-03-01T06:43:20;99924.75;;;2.23;100.00
35023;BME280;21214;44.912;8.204;2023-03-01T06:45:45;99926.91;;;2.30;100.00
35023;BME280;21214;44.912;8.204;2023-03-01T06:48:11;99922.81;;;2.42;100.00
35023;BME280;21214;44.912;8.204;2023-03-01T06:50:36;99927.09;;;2.43;100.00
35023;BME280;21214;44.912;8.204;2023-03-01T06:53:03;99916.34;;;2.49;100.00
35023;BME280;21214;44.912;8.204;2023-03-01T06:55:29;99931.06;;;2.50;100.00
35023;BME280;21214;44.912;8.204;2023-03-01T06:57:57;99933.66;;;2.50;100.00
35023;BME280;21214;44.912;8.204;2023-03-01T07:00:23;99932.75;;;2.51;100.00
35023;BME280;21214;44.912;8.204;2023-03-01T07:02:49;99936.34;;;2.48;100.00
35023;BME280;21214;44.912;8.204;2023-03-01T07:05:14;99938.72;;;2.53;100.00
35023;BME280;21214;44.912;8.204;2023-03-01T07:07:39;99937.72;;;2.56;100.00
35023;BME280;21214;44.912;8.204;2023-03-01T07:10:05;99935.88;;;2.58;100.00
35023;BME280;21214;44.912;8.204;2023-03-01T07:12:31;99936.38;;;2.64;100.00
35023;BME280;21214;44.912;8.204;2023-03-01T07:14:56;99939.84;;;2.65;100.00
35023;BME280;21214;44.912;8.204;2023-03-01T07:17:21;99944.59;;;2.72;100.00
35023;BME280;21214;44.912;8.204;2023-03-01T07:19:47;99951.16;;;2.79;100.00
35023;BME280;21214;44.912;8.204;2023-03-01T07:22:12;99947.63;;;2.80;100.00
35023;BME280;21214;44.912;8.204;2023-03-01T07:24:37;99948.22;;;2.85;100.00
35023;BME280;21214;44.912;8.204;2023-03-01T07:27:03;99953.09;;;2.92;100.00
35023;BME280;21214;44.912;8.204;2023-03-01T07:29:30;99941.47;;;2.97;100.00
35023;BME280;21214;44.912;8.204;2023-03-01T07:31:55;99936.84;;;3.02;100.00
35023;BME280;21214;44.912;8.204;2023-03-01T07:34:20;99947.97;;;3.06;100.00
35023;BME280;21214;44.912;8.204;2023-03-01T07:36:46;99942.41;;;3.12;100.00
35023;BME280;21214;44.912;8.204;2023-03-01T07:39:11;99941.09;;;3.19;100.00
35023;BME280;21214;44.912;8.204;2023-03-01T07:41:37;99936.84;;;3.18;100.00
35023;BME280;21214;44.912;8.204;2023-03-01T07:44:02;99938.38;;;3.06;100.00
35023;BME280;21214;44.912;8.204;2023-03-01T07:46:27;99927.16;;;3.20;100.00
35023;BME280;21214;44.912;8.204;2023-03-01T07:48:53;99935.97;;;3.33;100.00
35023;BME280;21214;44.912;8.204;2023-03-01T07:51:18;99920.88;;;3.38;100.00
35023;BME280;21214;44.912;8.204;2023-03-01T07:53:45;99929.06;;;3.32;100.00
35023;BME280;21214;44.912;8.204;2023-03-01T07:56:11;99930.09;;;3.29;100.00
35023;BME280;21214;44.912;8.204;2023-03-01T07:58:37;99923.56;;;3.37;100.00
35023;BME280;21214;44.912;8.204;2023-03-01T08:01:04;99930.13;;;3.44;100.00
35023;BME280;21214;44.912;8.204;2023-03-01T08:03:29;99922.97;;;3.47;100.00
35023;BME280;21214;44.912;8.204;2023-03-01T08:05:55;99936.22;;;3.58;100.00
35023;BME280;21214;44.912;8.204;2023-03-01T08:08:20;99934.34;;;3.60;100.00
35023;BME280;21214;44.912;8.204;2023-03-01T08:10:45;99935.53;;;3.70;100.00
35023;BME280;21214;44.912;8.204;2023-03-01T08:13:11;99938.69;;;3.76;100.00
35023;BME280;21214;44.912;8.204;2023-03-01T08:15:36;99931.59;;;3.78;100.00
35023;BME280;21214;44.912;8.204;2023-03-01T08:18:01;99933.84;;;3.84;100.00
35023;BME280;21214;44.912;8.204;2023-03-01T08:20:27;99944.31;;;3.98;100.00
35023;BME280;21214;44.912;8.204;2023-03-01T08:22:52;99928.06;;;4.07;100.00
35023;BME280;21214;44.912;8.204;2023-03-01T08:25:17;99938.28;;;4.11;100.00
35023;BME280;21214;44.912;8.204;2023-03-01T08:27:43;99932.56;;;4.19;100.00
35023;BME280;21214;44.912;8.204;2023-03-01T08:30:08;99925.47;;;4.21;100.00
35023;BME280;21214;44.912;8.204;2023-03-01T08:32:38;99916.88;;;4.19;100.00
35023;BME280;21214;44.912;8.204;2023-03-01T08:35:03;99913.91;;;4.25;100.00
35023;BME280;21214;44.912;8.204;2023-03-01T08:37:29;99914.94;;;4.23;100.00
35023;BME280;21214;44.912;8.204;2023-03-01T08:39:56;99928.09;;;4.21;100.00
35023;BME280;21214;44.912;8.204;2023-03-01T08:42:21;99918.41;;;4.23;100.00
35023;BME280;21214;44.912;8.204;2023-03-01T08:44:46;99909.22;;;4.30;100.00
35023;BME280;21214;44.912;8.204;2023-03-01T08:47:12;99915.75;;;4.37;100.00
35023;BME280;21214;44.912;8.204;2023-03-01T08:49:37;99921.44;;;4.44;100.00
35023;BME280;21214;44.912;8.204;2023-03-01T08:52:02;99909.59;;;4.52;100.00
35023;BME280;21214;44.912;8.204;2023-03-01T08:54:28;99901.91;;;4.64;100.00
35023;BME280;21214;44.912;8.204;2023-03-01T08:56:53;99899.53;;;4.73;100.00
35023;BME280;21214;44.912;8.204;2023-03-01T08:59:19;99895.53;;;4.82;100.00
35023;BME280;21214;44.912;8.204;2023-03-01T09:01:44;99891.16;;;4.95;100.00
35023;BME280;21214;44.912;8.204;2023-03-01T09:04:10;99902.72;;;5.05;100.00
35023;BME280;21214;44.912;8.204;2023-03-01T09:06:35;99898.78;;;5.12;100.00
35023;BME280;21214;44.912;8.204;2023-03-01T09:09:02;99889.53;;;5.07;100.00
35023;BME280;21214;44.912;8.204;2023-03-01T09:11:27;99888.50;;;5.09;100.00
35023;BME280;21214;44.912;8.204;2023-03-01T09:13:53;99880.34;;;5.14;100.00
35023;BME280;21214;44.912;8.204;2023-03-01T09:16:19;99887.69;;;5.21;100.00
35023;BME280;21214;44.912;8.204;2023-03-01T09:18:45;99882.50;;;5.34;100.00
35023;BME280;21214;44.912;8.204;2023-03-01T09:21:14;99895.47;;;5.35;100.00
35023;BME280;21214;44.912;8.204;2023-03-01T09:23:41;99888.88;;;5.43;100.00
35023;BME280;21214;44.912;8.204;2023-03-01T09:26:07;99896.31;;;5.49;100.00
35023;BME280;21214;44.912;8.204;2023-03-01T09:28:38;99890.78;;;5.66;100.00
35023;BME280;21214;44.912;8.204;2023-03-01T09:31:04;99881.16;;;5.79;100.00
35023;BME280;21214;44.912;8.204;2023-03-01T09:33:29;99888.03;;;5.94;100.00
35023;BME280;21214;44.912;8.204;2023-03-01T09:38:23;99886.34;;;6.06;100.00
35023;BME280;21214;44.912;8.204;2023-03-01T09:40:48;99876.91;;;6.03;100.00
35023;BME280;21214;44.912;8.204;2023-03-01T09:43:18;99875.66;;;5.96;100.00
35023;BME280;21214;44.912;8.204;2023-03-01T09:45:44;99871.47;;;5.94;100.00
35023;BME280;21214;44.912;8.204;2023-03-01T09:48:13;99869.78;;;6.05;100.00
35023;BME280;21214;44.912;8.204;2023-03-01T09:50:41;99866.59;;;6.13;100.00
35023;BME280;21214;44.912;8.204;2023-03-01T09:53:13;99872.06;;;6.23;100.00
35023;BME280;21214;44.912;8.204;2023-03-01T09:55:43;99867.09;;;6.31;100.00
35023;BME280;21214;44.912;8.204;2023-03-01T10:00:43;99855.63;;;6.57;100.00
35023;BME280;21214;44.912;8.204;2023-03-01T10:08:34;99848.19;;;6.51;100.00
35023;BME280;21214;44.912;8.204;2023-03-01T10:11:03;99835.53;;;6.45;100.00
35023;BME280;21214;44.912;8.204;2023-03-01T10:13:33;99834.53;;;6.58;100.00
35023;BME280;21214;44.912;8.204;2023-03-01T10:16:09;99835.63;;;6.67;100.00
35023;BME280;21214;44.912;8.204;2023-03-01T10:18:36;99828.91;;;6.76;100.00
35023;BME280;21214;44.912;8.204;2023-03-01T10:21:07;99835.19;;;6.73;100.00
35023;BME280;21214;44.912;8.204;2023-03-01T10:23:37;99832.56;;;6.73;100.00
35023;BME280;21214;44.912;8.204;2023-03-01T10:31:02;99818.81;;;6.82;100.00
35023;BME280;21214;44.912;8.204;2023-03-01T10:33:32;99819.94;;;6.78;100.00
35023;BME280;21214;44.912;8.204;2023-03-01T10:35:57;99819.78;;;6.92;100.00
35023;BME280;21214;44.912;8.204;2023-03-01T10:38:23;99818.25;;;7.01;100.00
35023;BME280;21214;44.912;8.204;2023-03-01T10:43:17;99807.63;;;6.91;100.00
35023;BME280;21214;44.912;8.204;2023-03-01T10:45:42;99801.78;;;6.88;100.00
35023;BME280;21214;44.912;8.204;2023-03-01T10:50:33;99797.81;;;6.82;100.00
35023;BME280;21214;44.912;8.204;2023-03-01T10:52:59;99797.56;;;6.85;100.00
35023;BME280;21214;44.912;8.204;2023-03-01T10:55:35;99796.53;;;6.88;100.00
35023;BME280;21214;44.912;8.204;2023-03-01T10:58:20;99792.13;;;6.88;100.00
35023;BME280;21214;44.912;8.204;2023-03-01T11:00:47;99788.53;;;6.89;100.00
35023;BME280;21214;44.912;8.204;2023-03-01T11:03:14;99785.69;;;6.92;100.00
35023;BME280;21214;44.912;8.204;2023-03-01T11:05:51;99785.78;;;6.91;100.00
35023;BME280;21214;44.912;8.204;2023-03-01T11:08:29;99779.94;;;6.87;100.00
35023;BME280;21214;44.912;8.204;2023-03-01T11:11:03;99775.53;;;6.88;100.00
35023;BME280;21214;44.912;8.204;2023-03-01T11:13:29;99768.16;;;6.93;100.00
35023;BME280;21214;44.912;8.204;2023-03-01T11:15:58;99765.66;;;6.91;100.00
35023;BME280;21214;44.912;8.204;2023-03-01T11:18:23;99758.88;;;7.00;100.00
35023;BME280;21214;44.912;8.204;2023-03-01T11:20:50;99761.38;;;7.02;100.00
35023;BME280;21214;44.912;8.204;2023-03-01T11:23:17;99743.53;;;7.07;100.00
35023;BME280;21214;44.912;8.204;2023-03-01T11:25:47;99741.50;;;7.10;100.00
35023;BME280;21214;44.912;8.204;2023-03-01T11:28:17;99732.31;;;7.16;100.00
35023;BME280;21214;44.912;8.204;2023-03-01T11:33:13;99725.16;;;7.18;100.00
35023;BME280;21214;44.912;8.204;2023-03-01T11:35:42;99727.44;;;7.22;100.00
35023;BME280;21214;44.912;8.204;2023-03-01T11:38:16;99709.78;;;7.24;100.00
35023;BME280;21214;44.912;8.204;2023-03-01T11:45:42;99701.41;;;7.30;100.00
35023;BME280;21214;44.912;8.204;2023-03-01T11:48:22;99700.84;;;7.38;100.00
35023;BME280;21214;44.912;8.204;2023-03-01T11:50:50;99698.69;;;7.43;100.00
35023;BME280;21214;44.912;8.204;2023-03-01T11:55:55;99686.03;;;7.48;100.00
35023;BME280;21214;44.912;8.204;2023-03-01T11:58:40;99686.03;;;7.48;100.00
35023;BME280;21214;44.912;8.204;2023-03-01T12:03:52;99675.06;;;7.43;100.00
35023;BME280;21214;44.912;8.204;2023-03-01T12:06:23;99669.31;;;7.38;100.00
35023;BME280;21214;44.912;8.204;2023-03-01T12:09:11;99656.94;;;7.29;100.00
35023;BME280;21214;44.912;8.204;2023-03-01T12:53:00;99592.84;;;7.54;100.00
35023;BME280;21214;44.912;8.204;2023-03-01T13:03:34;99586.50;;;7.45;96.27
35023;BME280;21214;44.912;8.204;2023-03-01T13:06:04;99582.66;;;7.49;96.85
35023;BME280;21214;44.912;8.204;2023-03-01T13:08:41;99587.44;;;7.55;97.73
35023;BME280;21214;44.912;8.204;2023-03-01T13:11:15;99578.13;;;7.62;95.16
35023;BME280;21214;44.912;8.204;2023-03-01T13:13:41;99580.38;;;7.67;92.75
35023;BME280;21214;44.912;8.204;2023-03-01T13:18:50;99580.72;;;7.73;90.92
35023;BME280;21214;44.912;8.204;2023-03-01T13:21:30;99586.22;;;7.70;90.21
35023;BME280;21214;44.912;8.204;2023-03-01T13:23:56;99589.41;;;7.74;90.92
35023;BME280;21214;44.912;8.204;2023-03-01T13:26:21;99595.16;;;7.68;91.54
35023;BME280;21214;44.912;8.204;2023-03-01T13:28:53;99590.03;;;7.66;92.53
35023;BME280;21214;44.912;8.204;2023-03-01T13:33:52;99592.66;;;7.77;90.11
35023;BME280;21214;44.912;8.204;2023-03-01T13:44:12;99585.13;;;8.05;92.78
35023;BME280;21214;44.912;8.204;2023-03-01T13:46:43;99580.97;;;8.02;93.57
35023;BME280;21214;44.912;8.204;2023-03-01T13:49:09;99590.06;;;7.98;94.11
35023;BME280;21214;44.912;8.204;2023-03-01T13:51:38;99594.97;;;7.92;95.03
35023;BME280;21214;44.912;8.204;2023-03-01T13:54:03;99599.72;;;7.98;95.40
35023;BME280;21214;44.912;8.204;2023-03-01T13:56:33;99603.53;;;8.05;95.40
35023;BME280;21214;44.912;8.204;2023-03-01T13:59:05;99599.00;;;8.07;95.39
35023;BME280;21214;44.912;8.204;2023-03-01T14:01:35;99597.31;;;8.06;100.00
35023;BME280;21214;44.912;8.204;2023-03-01T14:04:16;99604.00;;;8.10;100.00
35023;BME280;21214;44.912;8.204;2023-03-01T14:06:43;99606.34;;;8.13;100.00
35023;BME280;21214;44.912;8.204;2023-03-01T14:09:18;99599.31;;;8.13;100.00
35023;BME280;21214;44.912;8.204;2023-03-01T14:19:35;99611.41;;;8.05;100.00
35023;BME280;21214;44.912;8.204;2023-03-01T14:22:16;99611.19;;;7.97;100.00
35023;BME280;21214;44.912;8.204;2023-03-01T14:24:46;99614.09;;;7.94;100.00
35023;BME280;21214;44.912;8.204;2023-03-01T14:27:12;99621.50;;;7.89;100.00
35023;BME280;21214;44.912;8.204;2023-03-01T14:29:38;99613.75;;;7.87;100.00
35023;BME280;21214;44.912;8.204;2023-03-01T14:34:35;99616.03;;;7.80;100.00
35023;BME280;21214;44.912;8.204;2023-03-01T14:39:44;99628.59;;;7.77;100.00
35023;BME280;21214;44.912;8.204;2023-03-01T14:42:09;99626.81;;;7.77;100.00
35023;BME280;21214;44.912;8.204;2023-03-01T14:44:36;99629.16;;;7.80;100.00
35023;BME280;21214;44.912;8.204;2023-03-01T14:47:02;99631.06;;;7.78;100.00
35023;BME280;21214;44.912;8.204;2023-03-01T14:49:29;99633.97;;;7.75;100.00
35023;BME280;21214;44.912;8.204;2023-03-01T14:51:57;99644.84;;;7.71;100.00
35023;BME280;21214;44.912;8.204;2023-03-01T14:54:27;99637.81;;;7.71;100.00
35023;BME280;21214;44.912;8.204;2023-03-01T14:56:58;99641.59;;;7.67;100.00
35023;BME280;21214;44.912;8.204;2023-03-01T14:59:24;99642.56;;;7.66;100.00
35023;BME280;21214;44.912;8.204;2023-03-01T15:01:51;99644.72;;;7.61;100.00
35023;BME280;21214;44.912;8.204;2023-03-01T15:04:17;99648.28;;;7.60;100.00